Time;durP1;ratioP1;P1;durP2;ratioP2;P2;SDS_P1;SDS_P2;PMS_P1;PMS_P2;Temp;Humidity;BMP_temperature;BMP_pressure;BME280_temperature;BME280_humidity;BME280_pressure;Samples;Min_cycle;Max_cycle;Signal;HPM_P1;HPM_P2
2022/06/22 00:00:13;;;;;;;12.38;8.25;;;12.80;99.90;;;;;;5030369;28;20123;-70
2022/06/22 00:02:43;;;;;;;12.25;7.97;;;12.80;99.90;;;;;;5044689;28;20124;-70
2022/06/22 00:05:18;;;;;;;12.48;7.97;;;12.80;99.90;;;;;;5018881;28;20416;-70
2022/06/22 00:07:53;;;;;;;15.60;8.70;;;12.70;99.90;;;;;;5047083;28;20125;-69
2022/06/22 00:10:22;;;;;;;10.68;7.50;;;12.80;99.90;;;;;;5029136;28;20065;-69
2022/06/22 00:12:53;;;;;;;11.05;7.65;;;12.70;99.90;;;;;;5029441;28;20040;-69
2022/06/22 00:15:25;;;;;;;8.93;6.60;;;12.60;99.90;;;;;;5023953;28;20056;-69
2022/06/22 00:17:51;;;;;;;9.68;7.15;;;12.60;99.90;;;;;;5046658;28;20046;-69
2022/06/22 00:20:27;;;;;;;14.10;8.35;;;12.60;99.90;;;;;;5052990;28;20037;-69
2022/06/22 00:23:05;;;;;;;15.40;8.88;;;12.50;99.90;;;;;;5031343;28;20041;-70
2022/06/22 00:25:30;;;;;;;12.93;8.23;;;12.50;99.90;;;;;;5031663;28;20049;-69
2022/06/22 00:28:27;;;;;;;10.98;8.00;;;12.40;99.90;;;;;;5029956;28;20044;-69
2022/06/22 00:31:14;;;;;;;11.15;7.93;;;12.50;99.90;;;;;;5033409;28;20096;-69
2022/06/22 00:34:13;;;;;;;12.60;7.72;;;12.40;99.90;;;;;;5030266;28;20090;-69
2022/06/22 00:36:57;;;;;;;9.30;7.22;;;12.30;99.90;;;;;;5034493;28;20044;-69
2022/06/22 00:39:44;;;;;;;12.68;8.35;;;12.30;99.90;;;;;;5031741;28;20041;-69
2022/06/22 00:42:15;;;;;;;11.55;8.80;;;12.30;99.90;;;;;;5033657;28;20041;-69
2022/06/22 00:45:08;;;;;;;9.40;7.10;;;12.20;99.90;;;;;;5016306;28;20053;-69
2022/06/22 00:47:55;;;;;;;10.75;7.10;;;12.10;99.90;;;;;;5052074;28;20107;-69
2022/06/22 00:50:43;;;;;;;13.57;7.25;;;12.10;99.90;;;;;;5015188;28;20044;-70
2022/06/22 00:53:19;;;;;;;12.68;9.20;;;12.00;99.90;;;;;;5019776;28;20048;-70
2022/06/22 00:56:00;;;;;;;12.70;8.38;;;12.00;99.90;;;;;;5050736;28;20044;-70
2022/06/22 00:58:34;;;;;;;9.25;7.90;;;12.00;99.90;;;;;;5049963;28;20116;-70
2022/06/22 01:01:28;;;;;;;10.40;7.47;;;11.90;99.90;;;;;;5053378;28;20136;-70
2022/06/22 01:04:00;;;;;;;11.95;8.50;;;11.90;99.90;;;;;;5005117;28;20057;-70
2022/06/22 01:06:49;;;;;;;8.43;7.28;;;11.80;99.90;;;;;;5035307;28;20068;-70
2022/06/22 01:09:34;;;;;;;11.93;8.85;;;11.70;99.90;;;;;;5033009;28;20045;-70
2022/06/22 01:12:25;;;;;;;11.52;7.93;;;11.70;99.90;;;;;;5032494;28;20507;-70
2022/06/22 01:15:09;;;;;;;13.43;7.47;;;11.70;99.90;;;;;;5031658;28;20125;-70
2022/06/22 01:17:47;;;;;;;9.10;7.68;;;11.60;99.90;;;;;;5031796;28;20106;-70
2022/06/22 01:20:50;;;;;;;12.48;8.85;;;11.50;99.90;;;;;;5049608;28;20040;-70
2022/06/22 01:23:47;;;;;;;11.98;8.30;;;11.50;99.90;;;;;;5023156;28;20408;-70
2022/06/22 01:26:24;;;;;;;9.30;8.10;;;11.40;99.90;;;;;;5051422;28;20098;-70
2022/06/22 01:28:53;;;;;;;11.85;8.15;;;11.40;99.90;;;;;;5050599;28;20128;-70
2022/06/22 01:31:18;;;;;;;9.93;7.85;;;11.30;99.90;;;;;;5031771;28;20052;-70
2022/06/22 01:33:49;;;;;;;9.60;7.80;;;11.30;99.90;;;;;;5032699;28;20485;-70
2022/06/22 01:36:22;;;;;;;10.02;8.00;;;11.30;99.90;;;;;;5052746;28;20133;-70
2022/06/22 01:38:49;;;;;;;10.70;8.00;;;11.20;99.90;;;;;;5031645;28;20481;-70
2022/06/22 01:41:27;;;;;;;10.43;9.10;;;11.20;99.90;;;;;;5033630;28;20405;-70
2022/06/22 01:44:11;;;;;;;10.40;8.20;;;11.10;99.90;;;;;;5051385;28;20045;-70
2022/06/22 01:47:10;;;;;;;8.88;8.07;;;11.10;99.90;;;;;;5015749;28;20071;-70
2022/06/22 01:50:03;;;;;;;11.82;9.27;;;11.10;99.90;;;;;;5051917;28;20048;-70
2022/06/22 01:52:53;;;;;;;10.95;9.02;;;11.00;99.90;;;;;;5032881;28;20044;-70
2022/06/22 01:55:45;;;;;;;12.38;9.00;;;11.00;99.90;;;;;;5049332;28;20041;-70
2022/06/22 01:58:13;;;;;;;11.02;8.23;;;10.90;99.90;;;;;;5031446;28;20037;-70
2022/06/22 02:00:42;;;;;;;9.70;8.00;;;10.90;99.90;;;;;;5051738;28;20159;-70
2022/06/22 02:03:19;;;;;;;11.20;8.60;;;10.90;99.90;;;;;;5014956;28;20132;-70
2022/06/22 02:05:55;;;;;;;10.45;9.05;;;10.80;99.90;;;;;;5051582;28;20385;-70
2022/06/22 02:08:40;;;;;;;13.35;9.40;;;10.70;99.90;;;;;;5031298;28;20083;-70
2022/06/22 02:11:12;;;;;;;11.43;8.27;;;10.80;99.90;;;;;;5030017;28;20475;-70
2022/06/22 02:13:44;;;;;;;13.05;9.00;;;10.80;99.90;;;;;;5029293;28;20128;-70
2022/06/22 02:16:28;;;;;;;13.27;9.38;;;10.80;99.90;;;;;;5051231;28;20048;-70
2022/06/22 02:18:56;;;;;;;10.05;7.78;;;10.70;99.90;;;;;;5032047;28;20199;-70
2022/06/22 02:21:44;;;;;;;12.52;8.70;;;10.70;99.90;;;;;;5031601;28;20033;-70
2022/06/22 02:24:38;;;;;;;13.35;9.18;;;10.60;99.90;;;;;;5016111;28;22027;-70
2022/06/22 02:27:18;;;;;;;11.60;8.63;;;10.60;99.90;;;;;;5020333;28;20052;-70
2022/06/22 02:29:52;;;;;;;10.90;9.77;;;10.60;99.90;;;;;;5031530;28;20037;-70
2022/06/22 02:32:27;;;;;;;11.55;9.52;;;10.50;99.90;;;;;;5050185;28;20077;-70
2022/06/22 02:34:55;;;;;;;11.45;8.98;;;10.50;99.90;;;;;;5028466;28;20472;-70
2022/06/22 02:37:25;;;;;;;11.82;9.02;;;10.40;99.90;;;;;;5033712;28;20036;-70
2022/06/22 02:39:55;;;;;;;10.07;9.05;;;10.40;99.90;;;;;;5030250;28;20051;-70
2022/06/22 02:45:08;;;;;;;11.38;8.05;;;10.40;99.90;;;;;;5031365;28;20135;-70
2022/06/22 02:48:00;;;;;;;9.75;7.35;;;10.30;99.90;;;;;;5032881;28;20090;-70
2022/06/22 02:50:42;;;;;;;8.38;6.90;;;10.30;99.90;;;;;;5030210;28;20089;-70
2022/06/22 02:53:28;;;;;;;6.70;6.10;;;10.30;99.90;;;;;;5030481;28;20045;-70
2022/06/22 02:55:55;;;;;;;10.07;7.90;;;10.20;99.90;;;;;;5031274;28;20103;-70
2022/06/22 02:58:30;;;;;;;11.63;8.52;;;10.20;99.90;;;;;;5047873;28;20049;-69
2022/06/22 03:01:00;;;;;;;7.72;7.03;;;10.10;99.90;;;;;;5032110;28;20442;-69
2022/06/22 03:03:27;;;;;;;6.78;5.55;;;10.10;99.90;;;;;;5030163;28;20096;-69
2022/06/22 03:05:56;;;;;;;6.22;5.60;;;10.10;99.90;;;;;;5032692;28;20412;-69
2022/06/22 03:08:23;;;;;;;6.35;5.75;;;9.90;99.90;;;;;;5031922;28;20500;-69
2022/06/22 03:10:54;;;;;;;5.40;4.85;;;10.00;99.90;;;;;;5009879;28;20466;-69
2022/06/22 03:13:24;;;;;;;6.43;5.82;;;10.00;99.90;;;;;;5028639;28;20101;-69
2022/06/22 03:15:51;;;;;;;6.35;5.75;;;9.90;99.90;;;;;;5047175;28;20045;-69
2022/06/22 03:18:24;;;;;;;5.90;5.40;;;9.90;99.90;;;;;;5029990;28;20041;-69
2022/06/22 03:20:55;;;;;;;6.45;5.32;;;9.90;99.90;;;;;;5026544;28;20493;-69
2022/06/22 03:23:23;;;;;;;6.47;5.00;;;9.80;99.90;;;;;;5047609;28;20156;-69
2022/06/22 03:26:00;;;;;;;5.50;5.00;;;9.80;99.90;;;;;;5029437;28;20040;-69
2022/06/22 03:28:32;;;;;;;5.63;5.13;;;9.80;99.90;;;;;;5046135;28;20066;-69
2022/06/22 03:31:06;;;;;;;7.82;5.32;;;9.70;99.90;;;;;;5015134;28;20044;-69
2022/06/22 03:33:44;;;;;;;7.03;6.13;;;9.70;99.90;;;;;;5029447;28;20090;-69
2022/06/22 03:36:20;;;;;;;7.78;6.97;;;9.60;99.90;;;;;;5050046;28;20044;-69
2022/06/22 03:39:01;;;;;;;10.13;9.13;;;9.60;99.90;;;;;;5031629;28;20128;-69
2022/06/22 03:41:31;;;;;;;10.07;9.15;;;9.50;99.90;;;;;;5044429;28;20029;-69
2022/06/22 03:44:05;;;;;;;12.23;9.30;;;9.60;99.90;;;;;;5029659;28;20056;-69
2022/06/22 03:46:40;;;;;;;11.60;10.38;;;9.60;99.90;;;;;;5031155;28;20060;-69
2022/06/22 03:49:33;;;;;;;11.30;9.45;;;9.60;99.90;;;;;;5047880;28;20045;-69
2022/06/22 03:52:12;;;;;;;13.73;12.25;;;9.70;99.90;;;;;;5031930;28;20049;-70
2022/06/22 03:55:10;;;;;;;14.48;13.02;;;9.70;99.90;;;;;;5045445;28;20084;-70
2022/06/22 03:57:39;;;;;;;16.42;13.40;;;9.90;99.90;;;;;;5015923;28;20106;-70
2022/06/22 04:00:06;;;;;;;17.75;14.05;;;10.00;99.90;;;;;;5028328;28;20059;-70
2022/06/22 04:02:33;;;;;;;17.70;12.73;;;10.10;99.90;;;;;;5032117;28;20037;-70
2022/06/22 04:05:00;;;;;;;13.95;12.40;;;10.10;99.90;;;;;;5029936;28;20126;-70
2022/06/22 04:07:31;;;;;;;14.45;12.93;;;10.20;99.90;;;;;;5032150;28;20103;-70
2022/06/22 04:09:57;;;;;;;15.20;13.57;;;10.30;99.90;;;;;;5047590;28;20068;-70
2022/06/22 04:12:42;;;;;;;17.92;14.15;;;10.30;99.90;;;;;;5031320;28;20092;-70
2022/06/22 04:15:26;;;;;;;;;;;10.40;99.90;;;;;;5048832;28;20056;-70
2022/06/22 04:18:05;;;;;;;18.17;15.07;;;10.50;99.90;;;;;;5049877;28;19928;-70
2022/06/22 04:20:52;;;;;;;17.23;14.98;;;10.50;99.90;;;;;;5029523;28;20037;-70
2022/06/22 04:23:29;;;;;;;18.63;15.80;;;10.60;99.90;;;;;;5031799;28;20048;-70
2022/06/22 04:26:04;;;;;;;19.83;15.65;;;10.70;99.90;;;;;;5030304;28;20441;-70
2022/06/22 04:28:31;;;;;;;;;;;10.90;99.90;;;;;;5044687;28;20042;-70
2022/06/22 04:30:58;;;;;;;19.13;16.17;;;11.00;99.90;;;;;;5049848;28;20327;-70
2022/06/22 04:33:43;;;;;;;22.70;15.25;;;11.10;99.90;;;;;;5031219;28;20095;-70
2022/06/22 04:36:30;;;;;;;18.17;15.45;;;11.30;99.90;;;;;;5029487;28;20049;-69
2022/06/22 04:39:16;;;;;;;19.45;15.50;;;11.40;99.90;;;;;;5048074;28;20047;-69
2022/06/22 04:41:42;;;;;;;18.27;15.88;;;11.50;99.90;;;;;;5027376;28;20120;-69
2022/06/22 04:44:16;;;;;;;19.65;14.93;;;11.60;99.90;;;;;;5047431;28;20143;-69
2022/06/22 04:46:45;;;;;;;20.20;14.32;;;11.80;99.90;;;;;;5029814;28;20048;-69
2022/06/22 04:49:19;;;;;;;18.42;14.35;;;11.90;99.90;;;;;;5031212;28;20043;-69
2022/06/22 04:51:50;;;;;;;20.25;13.68;;;12.00;99.90;;;;;;5047032;28;20737;-69
2022/06/22 04:54:31;;;;;;;20.27;16.05;;;12.20;99.90;;;;;;5027849;28;20071;-69
2022/06/22 04:57:04;;;;;;;17.58;14.45;;;12.30;99.90;;;;;;5046450;28;20037;-69
2022/06/22 04:59:31;;;;;;;14.50;13.00;;;12.50;99.90;;;;;;5031435;28;20472;-69
2022/06/22 05:02:01;;;;;;;16.65;13.52;;;12.80;99.90;;;;;;5048499;28;20037;-69
2022/06/22 05:04:38;;;;;;;19.58;14.50;;;13.30;99.90;;;;;;5046553;28;20061;-69
2022/06/22 05:07:32;;;;;;;18.02;12.68;;;14.00;99.90;;;;;;5034051;28;20049;-69
2022/06/22 05:10:16;;;;;;;13.57;11.80;;;14.50;99.90;;;;;;5032232;28;20058;-69
2022/06/22 05:12:58;;;;;;;17.20;13.27;;;14.70;99.90;;;;;;5049638;28;20043;-69
2022/06/22 05:15:37;;;;;;;16.38;13.95;;;14.70;99.90;;;;;;5049607;28;20069;-69
2022/06/22 05:18:10;;;;;;;15.10;12.80;;;14.70;99.90;;;;;;5035402;28;20041;-69
2022/06/22 05:21:06;;;;;;;14.90;12.02;;;14.70;99.90;;;;;;5033828;28;20045;-69
2022/06/22 05:23:32;;;;;;;13.10;11.68;;;14.70;99.90;;;;;;5033723;28;20049;-69
2022/06/22 05:26:03;;;;;;;14.63;11.73;;;14.60;99.90;;;;;;5033517;28;20127;-69
2022/06/22 05:28:46;;;;;;;15.52;11.85;;;14.60;99.90;;;;;;5032915;28;20069;-69
2022/06/22 05:31:15;;;;;;;14.13;12.23;;;14.60;99.90;;;;;;5050959;28;20040;-69
2022/06/22 05:33:46;;;;;;;20.88;13.15;;;14.60;99.90;;;;;;5049638;28;20118;-70
2022/06/22 05:36:13;;;;;;;17.95;13.13;;;14.60;99.90;;;;;;5050083;28;20562;-70
2022/06/22 05:38:44;;;;;;;13.38;11.57;;;14.80;99.90;;;;;;5051759;28;20535;-70
2022/06/22 05:41:12;;;;;;;15.52;11.27;;;14.90;99.90;;;;;;5051461;28;20037;-70
2022/06/22 05:43:40;;;;;;;16.00;13.02;;;14.90;99.90;;;;;;5049169;28;20079;-70
2022/06/22 05:46:06;;;;;;;13.25;9.32;;;15.00;99.90;;;;;;5050640;28;20116;-70
2022/06/22 05:48:38;;;;;;;14.65;9.18;;;15.10;99.90;;;;;;5027406;28;20105;-70
2022/06/22 05:51:21;;;;;;;14.52;9.73;;;15.20;99.90;;;;;;5029904;28;20045;-70
2022/06/22 05:54:19;;;;;;;10.77;9.27;;;15.30;99.90;;;;;;5031463;28;20041;-70
2022/06/22 05:56:51;;;;;;;11.82;9.48;;;15.30;99.90;;;;;;5030290;28;20048;-70
2022/06/22 05:59:40;;;;;;;11.88;9.02;;;15.40;99.90;;;;;;5049632;28;20440;-70
2022/06/22 06:02:12;;;;;;;10.63;8.65;;;15.40;99.90;;;;;;5049633;28;20044;-70
2022/06/22 06:04:55;;;;;;;13.60;8.57;;;15.50;99.90;;;;;;5031967;28;20057;-70
2022/06/22 06:07:29;;;;;;;11.88;8.35;;;15.60;99.90;;;;;;5031803;28;20045;-70
2022/06/22 06:09:55;;;;;;;;;;;15.60;99.90;;;;;;5033743;28;20439;-70
2022/06/22 06:12:36;;;;;;;12.05;9.55;;;15.70;99.90;;;;;;5033498;28;19924;-70
2022/06/22 06:15:04;;;;;;;12.45;8.32;;;15.80;99.90;;;;;;5032312;28;20076;-70
2022/06/22 06:17:36;;;;;;;12.48;10.20;;;15.90;99.90;;;;;;5033106;28;20041;-70
2022/06/22 06:20:06;;;;;;;13.07;9.52;;;16.10;99.90;;;;;;5032889;28;20056;-70
2022/06/22 06:22:35;;;;;;;10.73;9.52;;;16.20;99.90;;;;;;5033427;28;20056;-70
2022/06/22 06:28:05;;;;;;;10.32;9.13;;;16.40;99.90;;;;;;5036391;28;20056;-70
2022/06/22 06:30:46;;;;;;;12.68;7.35;;;16.50;99.90;;;;;;5048098;28;20029;-70
2022/06/22 06:33:23;;;;;;;10.55;7.38;;;16.50;99.90;;;;;;5032375;28;20036;-70
2022/06/22 06:35:55;;;;;;;7.93;5.97;;;16.60;99.90;;;;;;5032227;28;20389;-70
2022/06/22 06:38:35;;;;;;;9.65;6.03;;;16.60;99.90;;;;;;5050225;28;20045;-70
2022/06/22 06:41:07;;;;;;;11.20;6.30;;;16.70;99.90;;;;;;5032359;28;20041;-71
2022/06/22 06:43:50;;;;;;;10.40;6.85;;;16.70;99.90;;;;;;5005457;28;20156;-70
2022/06/22 06:46:31;;;;;;;13.00;7.72;;;16.80;99.90;;;;;;5031037;28;20079;-66
2022/06/22 06:49:25;;;;;;;10.68;7.10;;;16.90;99.90;;;;;;5047821;28;20124;-67
2022/06/22 06:52:20;;;;;;;8.07;5.85;;;16.90;99.90;;;;;;5047487;28;20045;-67
2022/06/22 06:54:56;;;;;;;7.18;5.65;;;17.00;99.90;;;;;;5050516;28;20062;-67
2022/06/22 06:57:23;;;;;;;9.05;6.70;;;17.00;99.90;;;;;;5048165;28;20055;-65
2022/06/22 06:59:57;;;;;;;6.57;5.80;;;17.10;99.90;;;;;;5048445;28;20102;-66
2022/06/22 07:02:29;;;;;;;8.48;5.22;;;17.30;99.90;;;;;;5050763;28;20570;-67
2022/06/22 07:04:57;;;;;;;7.43;5.15;;;17.40;99.90;;;;;;5048688;28;20082;-67
2022/06/22 07:07:41;;;;;;;6.35;3.85;;;17.50;99.90;;;;;;5051172;28;20098;-65
2022/06/22 07:10:40;;;;;;;6.18;3.92;;;17.60;99.90;;;;;;5048532;28;20036;-66
2022/06/22 07:13:29;;;;;;;3.70;2.28;;;17.90;99.90;;;;;;5033613;28;20078;-67
2022/06/22 07:15:58;;;;;;;6.90;2.50;;;18.00;99.90;;;;;;5049376;28;20072;-67
2022/06/22 07:18:35;;;;;;;6.47;2.00;;;18.10;99.90;;;;;;5048859;28;20495;-67
2022/06/22 07:21:21;;;;;;;3.92;1.67;;;18.20;99.00;;;;;;5049691;28;20086;-67
2022/06/22 07:23:52;;;;;;;3.22;1.40;;;18.10;95.40;;;;;;5048555;28;20064;-67
2022/06/22 07:26:29;;;;;;;5.25;1.90;;;18.20;96.00;;;;;;5049706;28;20086;-67
2022/06/22 07:29:30;;;;;;;6.28;1.42;;;18.30;94.90;;;;;;5047665;28;20112;-67
2022/06/22 07:32:26;;;;;;;2.83;1.30;;;18.40;94.80;;;;;;5048007;28;20037;-67
2022/06/22 07:34:59;;;;;;;2.88;0.98;;;18.60;94.40;;;;;;5047437;28;20396;-67
2022/06/22 07:37:39;;;;;;;5.78;1.70;;;18.60;93.80;;;;;;5049241;28;20626;-67
2022/06/22 07:40:16;;;;;;;3.47;1.67;;;18.70;94.20;;;;;;5048535;28;20460;-65
2022/06/22 07:42:45;;;;;;;3.25;1.33;;;18.80;94.30;;;;;;5045928;28;20523;-65
2022/06/22 07:45:17;;;;;;;2.80;0.73;;;18.80;94.00;;;;;;5029402;28;20085;-65
2022/06/22 07:47:57;;;;;;;3.83;1.10;;;18.90;89.90;;;;;;5049145;28;20037;-65
2022/06/22 07:50:50;;;;;;;3.38;1.20;;;19.10;89.60;;;;;;5049251;28;20408;-65
2022/06/22 07:53:32;;;;;;;2.42;0.90;;;19.20;88.00;;;;;;5048359;28;20061;-65
2022/06/22 07:56:20;;;;;;;2.10;1.00;;;19.40;87.60;;;;;;5050088;28;20049;-65
2022/06/22 07:58:54;;;;;;;3.75;1.60;;;19.40;83.20;;;;;;5046705;28;20072;-67
2022/06/22 08:01:30;;;;;;;2.20;1.30;;;19.50;84.70;;;;;;5045672;28;20492;-65
2022/06/22 08:04:02;;;;;;;3.17;0.95;;;19.70;83.10;;;;;;5047282;28;20083;-65
2022/06/22 08:06:56;;;;;;;2.65;0.88;;;19.80;81.10;;;;;;5046909;28;20085;-65
2022/06/22 08:09:30;;;;;;;3.25;0.75;;;19.90;79.30;;;;;;5040721;28;20053;-65
2022/06/22 08:12:05;;;;;;;2.75;0.95;;;20.10;79.60;;;;;;5049218;28;20111;-65
2022/06/22 08:15:03;;;;;;;2.22;1.05;;;20.30;75.20;;;;;;5046248;28;20083;-66
2022/06/22 08:17:42;;;;;;;3.38;1.98;;;20.40;77.60;;;;;;5043693;28;20091;-66
2022/06/22 08:20:30;;;;;;;4.85;1.40;;;20.80;77.90;;;;;;5049119;28;20803;-65
2022/06/22 08:22:58;;;;;;;3.20;1.38;;;21.00;74.50;;;;;;5021856;28;20460;-66
2022/06/22 08:25:25;;;;;;;6.60;1.50;;;21.40;75.70;;;;;;5047932;28;20489;-67
2022/06/22 08:27:52;;;;;;;4.00;1.00;;;22.00;73.00;;;;;;5029923;28;20118;-67
2022/06/22 08:30:19;;;;;;;3.70;1.30;;;22.40;69.90;;;;;;5046343;28;20431;-67
2022/06/22 08:33:06;;;;;;;5.40;1.58;;;22.80;65.60;;;;;;5048739;28;20136;-67
2022/06/22 08:35:40;;;;;;;4.72;1.48;;;23.10;62.40;;;;;;5048139;28;20048;-67
2022/06/22 08:38:14;;;;;;;4.03;1.38;;;23.40;64.40;;;;;;5048085;28;20029;-67
2022/06/22 08:40:58;;;;;;;3.33;1.42;;;23.60;64.80;;;;;;5050319;28;20037;-67
2022/06/22 08:43:50;;;;;;;5.65;2.90;;;23.90;61.90;;;;;;5052659;28;20041;-67
2022/06/22 08:46:39;;;;;;;4.25;1.33;;;24.10;59.90;;;;;;5051566;28;20041;-67
2022/06/22 08:49:14;;;;;;;5.60;1.63;;;24.30;60.30;;;;;;5053107;28;20084;-67
2022/06/22 08:52:19;;;;;;;5.35;1.83;;;24.20;59.50;;;;;;5051585;28;20354;-67
2022/06/22 08:55:22;;;;;;;3.97;1.42;;;24.30;60.10;;;;;;5053701;28;20037;-68
2022/06/22 08:58:09;;;;;;;3.63;1.60;;;24.60;60.80;;;;;;5046930;28;20080;-68
2022/06/22 09:00:47;;;;;;;3.10;1.00;;;24.70;59.50;;;;;;5051878;28;20076;-68
2022/06/22 09:03:25;;;;;;;2.13;0.90;;;24.80;54.00;;;;;;5050506;28;20057;-68
2022/06/22 09:06:04;;;;;;;5.30;1.05;;;24.80;56.10;;;;;;5050630;28;20057;-67
2022/06/22 09:08:39;;;;;;;2.58;0.70;;;24.90;53.40;;;;;;5046981;28;20041;-67
2022/06/22 09:11:20;;;;;;;2.72;1.02;;;25.00;53.80;;;;;;5051964;28;20059;-67
2022/06/22 09:14:15;;;;;;;3.53;1.02;;;24.90;53.40;;;;;;5050236;28;20052;-67
2022/06/22 09:16:47;;;;;;;3.20;0.95;;;24.70;54.40;;;;;;5046215;28;20161;-67
2022/06/22 09:19:42;;;;;;;3.42;1.00;;;24.60;53.10;;;;;;5047782;28;20060;-67
2022/06/22 09:22:10;;;;;;;2.10;0.95;;;24.40;52.90;;;;;;5050977;28;20115;-67
2022/06/22 09:25:02;;;;;;;2.80;0.80;;;24.40;51.40;;;;;;5050065;28;20740;-67
2022/06/22 09:27:39;;;;;;;1.92;0.77;;;24.60;52.20;;;;;;5052248;28;20036;-67
2022/06/22 09:30:40;;;;;;;2.92;0.98;;;24.70;50.80;;;;;;5049441;28;20043;-67
2022/06/22 09:33:12;;;;;;;2.50;0.77;;;24.90;50.20;;;;;;5040316;28;20343;-67
2022/06/22 09:35:40;;;;;;;3.63;0.80;;;25.10;53.50;;;;;;5033425;28;20056;-67
2022/06/22 09:38:49;;;;;;;2.53;0.80;;;25.20;50.20;;;;;;5051861;28;20425;-67
2022/06/22 09:41:42;;;;;;;2.47;1.00;;;25.30;48.90;;;;;;5049604;28;20048;-67
2022/06/22 09:44:17;;;;;;;2.90;1.30;;;25.30;48.90;;;;;;5047791;28;20061;-67
2022/06/22 09:47:00;;;;;;;2.85;1.13;;;25.20;49.90;;;;;;5048895;28;20041;-67
2022/06/22 09:49:35;;;;;;;4.03;1.00;;;25.30;51.60;;;;;;5051139;28;20043;-67
2022/06/22 09:52:18;;;;;;;3.78;1.00;;;25.50;52.00;;;;;;5048547;28;20072;-67
2022/06/22 09:57:57;;;;;;;3.03;1.17;;;25.80;50.80;;;;;;5045162;28;20055;-68
2022/06/22 10:00:43;;;;;;;4.90;1.65;;;25.70;49.90;;;;;;5050002;28;20045;-68
2022/06/22 10:03:46;;;;;;;4.15;1.52;;;25.90;50.50;;;;;;5027842;28;20108;-67
2022/06/22 10:06:30;;;;;;;3.42;1.50;;;25.90;49.00;;;;;;5022511;28;20095;-66
2022/06/22 10:09:27;;;;;;;3.80;1.70;;;25.50;48.10;;;;;;5050614;28;20048;-67
2022/06/22 10:12:24;;;;;;;3.95;1.20;;;25.50;50.20;;;;;;5008599;28;20848;-67
2022/06/22 10:14:55;;;;;;;3.00;1.02;;;25.40;48.70;;;;;;5040265;28;20061;-67
2022/06/22 10:17:31;;;;;;;3.70;1.45;;;25.40;48.70;;;;;;5029901;28;20087;-67
2022/06/22 10:20:14;;;;;;;2.80;1.10;;;25.50;50.00;;;;;;5048606;28;20048;-67
2022/06/22 10:23:06;;;;;;;4.40;1.33;;;25.60;47.30;;;;;;5029865;28;20056;-67
2022/06/22 10:25:44;;;;;;;3.92;1.30;;;25.70;47.30;;;;;;5026546;28;20139;-67
2022/06/22 10:28:39;;;;;;;3.17;1.10;;;25.90;47.90;;;;;;5050174;28;20067;-67
2022/06/22 10:31:19;;;;;;;3.90;1.02;;;26.10;45.00;;;;;;5031872;28;20075;-67
2022/06/22 10:34:03;;;;;;;4.80;1.10;;;26.30;41.50;;;;;;5049545;28;20033;-67
2022/06/22 10:36:32;;;;;;;4.05;1.33;;;26.40;43.30;;;;;;5050819;28;20057;-67
2022/06/22 10:39:26;;;;;;;3.55;1.15;;;26.20;44.00;;;;;;5049463;28;20037;-67
2022/06/22 10:47:37;;;;;;;4.07;0.88;;;25.90;44.70;;;;;;5047108;28;20256;-66
2022/06/22 10:50:03;;;;;;;3.13;1.10;;;26.00;45.60;;;;;;5048221;28;20068;-66
2022/06/22 10:53:10;;;;;;;2.72;1.15;;;26.10;45.60;;;;;;5050601;28;20040;-66
2022/06/22 10:55:59;;;;;;;2.40;1.00;;;26.50;44.60;;;;;;5047762;28;20544;-65
2022/06/22 10:59:03;;;;;;;2.53;1.30;;;26.80;44.20;;;;;;5044408;28;20033;-66
2022/06/22 11:01:42;;;;;;;2.95;1.30;;;27.30;48.00;;;;;;5032721;28;20123;-66
2022/06/22 11:04:45;;;;;;;4.20;1.52;;;27.50;47.20;;;;;;5045371;28;20088;-66
2022/06/22 11:07:40;;;;;;;3.90;1.00;;;27.70;45.30;;;;;;5046752;28;20051;-65
2022/06/22 11:10:25;;;;;;;2.30;0.90;;;27.90;43.10;;;;;;5010505;28;20727;-66
2022/06/22 11:12:54;;;;;;;5.63;1.30;;;27.80;43.20;;;;;;5043679;28;20052;-66
2022/06/22 11:15:55;;;;;;;3.50;1.27;;;27.70;43.90;;;;;;5043291;28;20542;-66
2022/06/22 11:18:37;;;;;;;3.17;1.20;;;27.60;42.70;;;;;;5035653;28;20131;-66
2022/06/22 11:21:24;;;;;;;3.13;1.38;;;27.60;45.50;;;;;;5049530;28;20117;-66
2022/06/22 11:24:03;;;;;;;3.72;1.27;;;27.70;44.60;;;;;;5045439;28;20043;-66
2022/06/22 11:33:11;;;;;;;5.00;1.35;;;27.90;44.40;;;;;;5048709;28;20112;-67
2022/06/22 11:35:43;;;;;;;5.45;1.20;;;27.60;43.10;;;;;;5047048;28;20132;-66
2022/06/22 11:38:21;;;;;;;4.85;1.50;;;27.60;44.20;;;;;;5045377;28;20140;-68
2022/06/22 11:41:07;;;;;;;2.97;1.20;;;27.60;43.10;;;;;;5047474;28;20469;-69
2022/06/22 11:43:57;;;;;;;4.05;1.50;;;27.80;41.90;;;;;;5043754;28;20048;-70
2022/06/22 11:46:32;;;;;;;4.25;1.10;;;27.80;44.70;;;;;;5047221;28;20040;-70
2022/06/22 11:49:16;;;;;;;3.00;1.20;;;28.20;44.20;;;;;;5028451;28;20135;-69
2022/06/22 11:52:07;;;;;;;2.42;0.98;;;28.30;40.60;;;;;;5030648;28;20455;-69
2022/06/22 11:54:39;;;;;;;3.00;0.80;;;28.10;41.20;;;;;;5030805;28;20412;-69
2022/06/22 11:57:26;;;;;;;2.60;0.80;;;28.00;41.60;;;;;;5030135;28;20500;-69
2022/06/22 11:59:57;;;;;;;3.25;1.23;;;28.00;40.00;;;;;;5047190;28;20056;-69
2022/06/22 12:02:41;;;;;;;2.75;1.30;;;28.00;40.50;;;;;;5028933;28;20049;-70
2022/06/22 12:05:35;;;;;;;4.00;1.40;;;28.00;40.30;;;;;;5047307;28;20049;-70
2022/06/22 12:08:04;;;;;;;;;;;27.90;43.20;;;;;;5030069;28;20103;-70
2022/06/22 12:10:32;;;;;;;5.38;1.60;;;28.10;44.70;;;;;;5028687;28;19963;-70
2022/06/22 12:13:11;;;;;;;4.35;1.80;;;28.30;43.80;;;;;;5029608;28;20124;-69
2022/06/22 12:15:59;;;;;;;3.63;1.50;;;28.50;42.00;;;;;;5050258;28;20102;-69
2022/06/22 12:18:27;;;;;;;5.53;2.00;;;28.40;42.80;;;;;;5049482;28;20072;-64
2022/06/22 12:20:59;;;;;;;2.47;1.23;;;28.40;43.40;;;;;;5051880;28;20137;-64
2022/06/22 12:23:46;;;;;;;4.20;1.13;;;28.40;42.10;;;;;;5050756;28;20132;-64
2022/06/22 12:26:49;;;;;;;4.25;1.40;;;28.30;41.90;;;;;;5034491;28;20037;-64
2022/06/22 12:29:24;;;;;;;4.72;1.63;;;28.40;42.70;;;;;;5048753;28;20064;-67
2022/06/22 12:31:57;;;;;;;2.97;1.20;;;28.30;41.50;;;;;;5052422;28;20053;-67
2022/06/22 12:35:00;;;;;;;3.58;1.70;;;28.30;43.10;;;;;;5048579;28;20434;-67
2022/06/22 12:37:31;;;;;;;4.57;2.60;;;28.30;42.00;;;;;;5050270;28;20032;-68
2022/06/22 12:40:21;;;;;;;2.88;1.05;;;28.20;42.70;;;;;;5046541;28;20119;-67
2022/06/22 12:43:41;;;;;;;2.35;1.40;;;28.20;42.80;;;;;;5031685;28;20053;-68
2022/06/22 12:46:16;;;;;;;5.80;1.95;;;27.80;42.80;;;;;;5035303;28;20093;-65
2022/06/22 12:49:08;;;;;;;4.53;1.42;;;27.50;42.40;;;;;;5048200;28;20049;-65
2022/06/22 12:51:59;;;;;;;4.63;1.65;;;27.60;42.20;;;;;;5039468;28;20045;-66
2022/06/22 12:54:32;;;;;;;3.80;1.45;;;27.70;42.80;;;;;;5044816;28;20045;-66
2022/06/22 12:57:01;;;;;;;;;;;27.60;41.70;;;;;;5050090;28;20039;-65
2022/06/22 12:59:36;;;;;;;5.35;1.80;;;27.70;41.40;;;;;;5052631;28;19917;-66
2022/06/22 13:02:09;;;;;;;4.50;2.00;;;27.60;41.80;;;;;;5026927;28;20053;-65
2022/06/22 13:04:37;;;;;;;3.97;1.63;;;27.60;41.20;;;;;;5050530;28;20049;-66
2022/06/22 13:07:11;;;;;;;4.70;1.65;;;27.50;42.50;;;;;;5049162;28;20112;-65
2022/06/22 13:09:37;;;;;;;3.53;1.48;;;27.60;44.50;;;;;;5047468;28;20036;-66
2022/06/22 13:12:30;;;;;;;6.57;1.60;;;27.60;42.60;;;;;;5052364;28;20040;-66
2022/06/22 13:15:00;;;;;;;4.65;1.27;;;27.80;44.40;;;;;;5050759;28;20045;-66
2022/06/22 13:17:47;;;;;;;3.30;1.50;;;28.10;44.80;;;;;;5051785;28;20040;-65
2022/06/22 13:20:37;;;;;;;4.70;2.00;;;28.10;41.60;;;;;;5050420;28;20076;-66
2022/06/22 13:23:35;;;;;;;5.75;1.80;;;27.90;42.20;;;;;;5047440;28;20470;-65
2022/06/22 13:26:07;;;;;;;4.47;1.65;;;27.70;42.60;;;;;;5051154;28;20033;-66
2022/06/22 13:28:54;;;;;;;3.80;1.60;;;27.80;43.70;;;;;;5048922;28;20048;-65
2022/06/22 13:31:24;;;;;;;5.45;1.70;;;27.70;42.60;;;;;;5051603;28;20036;-66
2022/06/22 13:33:57;;;;;;;4.43;1.70;;;27.50;43.70;;;;;;5045656;28;20049;-70
2022/06/22 13:36:29;;;;;;;3.15;1.65;;;27.60;44.70;;;;;;5051236;28;20040;-70
2022/06/22 13:39:19;;;;;;;3.97;1.77;;;27.50;45.10;;;;;;5034358;28;20123;-70
2022/06/22 13:42:21;;;;;;;8.00;1.90;;;27.60;46.50;;;;;;5051619;28;20041;-70
2022/06/22 13:45:09;;;;;;;5.18;1.63;;;27.70;45.10;;;;;;5024897;28;20050;-70
2022/06/22 13:48:10;;;;;;;3.47;1.52;;;27.60;45.40;;;;;;5022009;28;20124;-70
2022/06/22 13:51:19;;;;;;;3.85;1.73;;;27.70;45.50;;;;;;5030517;28;20041;-70
2022/06/22 13:54:26;;;;;;;2.95;1.80;;;27.60;46.20;;;;;;5048257;28;20123;-65
2022/06/22 13:57:29;;;;;;;3.50;1.92;;;27.50;45.80;;;;;;5049770;28;20036;-65
2022/06/22 14:00:23;;;;;;;2.80;1.40;;;27.30;45.80;;;;;;5049468;28;20043;-65
2022/06/22 14:02:58;;;;;;;4.15;1.63;;;27.20;46.80;;;;;;5048498;28;20041;-66
2022/06/22 14:05:55;;;;;;;3.50;1.80;;;27.10;48.20;;;;;;5051730;28;20084;-66
2022/06/22 14:08:53;;;;;;;6.32;1.90;;;27.10;46.30;;;;;;5049078;28;20028;-66